createdAt,value
2018-12-18T00:00:08.362Z,15.03
2018-12-18T00:02:37.512Z,16.00
2018-12-18T00:05:39.056Z,14.60
2018-12-18T00:08:08.159Z,14.63
2018-12-18T00:10:42.665Z,18.97
2018-12-18T00:13:11.855Z,17.87
2018-12-18T00:15:40.926Z,15.60
2018-12-18T00:18:10.009Z,15.57
2018-12-18T00:20:39.282Z,15.70
2018-12-18T00:23:08.724Z,14.17
2018-12-18T00:25:37.900Z,19.57
2018-12-18T00:28:07.056Z,15.17
2018-12-18T00:30:37.542Z,15.40
2018-12-18T00:33:06.626Z,13.87
2018-12-18T00:35:35.836Z,15.47
2018-12-18T00:38:04.904Z,15.40
2018-12-18T00:40:34.164Z,13.80
2018-12-18T00:43:03.364Z,13.77
2018-12-18T00:45:32.840Z,19.10
2018-12-18T00:48:01.943Z,13.57
2018-12-18T00:50:31.027Z,13.27
2018-12-18T00:53:00.367Z,13.53
2018-12-18T00:55:29.458Z,15.33
2018-12-18T00:57:58.596Z,13.30
2018-12-18T01:00:28.001Z,14.97
2018-12-18T01:02:57.116Z,10.47
2018-12-18T01:05:26.269Z,13.13
2018-12-18T01:07:55.338Z,16.93
2018-12-18T01:10:24.452Z,16.47
2018-12-18T01:12:53.547Z,13.43
2018-12-18T01:15:22.727Z,15.73
2018-12-18T01:17:51.919Z,16.80
2018-12-18T01:20:21.076Z,13.63
2018-12-18T01:22:50.389Z,14.73
2018-12-18T01:25:19.477Z,15.77
2018-12-18T01:27:48.557Z,14.60
2018-12-18T01:30:17.667Z,19.23
2018-12-18T01:32:46.751Z,18.57
2018-12-18T01:35:16.854Z,14.87
2018-12-18T01:37:46.001Z,18.23
2018-12-18T01:40:15.099Z,17.07
2018-12-18T01:42:44.288Z,15.03
2018-12-18T01:45:13.538Z,16.13
2018-12-18T01:47:42.726Z,20.47
2018-12-18T01:50:13.150Z,15.07
2018-12-18T01:52:42.298Z,14.97
2018-12-18T01:55:11.412Z,18.87
2018-12-18T01:57:40.611Z,17.43
2018-12-18T02:00:09.957Z,13.80
2018-12-18T02:02:39.028Z,15.97
2018-12-18T02:05:09.204Z,19.17
2018-12-18T02:07:38.321Z,17.63
2018-12-18T02:10:07.513Z,17.40
2018-12-18T02:12:36.627Z,18.70
2018-12-18T02:15:05.980Z,18.13
2018-12-18T02:17:35.492Z,19.57
2018-12-18T02:20:05.808Z,15.90
2018-12-18T02:22:36.043Z,16.77
2018-12-18T02:25:06.215Z,20.07
2018-12-18T02:27:35.284Z,16.77
2018-12-18T02:30:07.192Z,15.77
2018-12-18T02:32:36.302Z,17.33
2018-12-18T02:35:06.017Z,19.90
2018-12-18T02:37:35.075Z,16.70
2018-12-18T02:40:04.817Z,16.00
2018-12-18T02:42:34.073Z,14.33
2018-12-18T02:45:03.509Z,21.47
2018-12-18T02:47:32.639Z,17.83
2018-12-18T02:50:01.873Z,15.23
2018-12-18T02:52:31.081Z,17.93
2018-12-18T02:55:00.162Z,18.33
2018-12-18T02:57:29.251Z,15.23
2018-12-18T02:59:58.642Z,15.23
2018-12-18T03:02:27.722Z,17.77
2018-12-18T03:04:56.980Z,16.77
2018-12-18T03:07:26.085Z,19.43
2018-12-18T03:09:55.311Z,17.30
2018-12-18T03:12:24.406Z,14.13
2018-12-18T03:14:53.585Z,15.23
2018-12-18T03:17:22.760Z,13.13
2018-12-18T03:19:51.856Z,14.77
2018-12-18T03:22:21.177Z,17.47
2018-12-18T03:24:50.258Z,17.43
2018-12-18T03:27:19.434Z,13.97
2018-12-18T03:29:48.553Z,13.87
2018-12-18T03:32:21.763Z,14.90
2018-12-18T03:34:51.894Z,15.10
2018-12-18T03:37:21.067Z,16.07
2018-12-18T03:39:50.174Z,18.83
2018-12-18T03:42:19.327Z,19.80
2018-12-18T03:44:48.424Z,11.97
2018-12-18T03:47:17.675Z,12.13
2018-12-18T03:49:46.753Z,13.87
2018-12-18T03:52:15.838Z,16.80
2018-12-18T03:54:46.101Z,10.40
2018-12-18T03:57:15.291Z,13.97
2018-12-18T03:59:44.393Z,17.80
2018-12-18T04:02:14.516Z,10.70
2018-12-18T04:04:43.714Z,12.50
2018-12-18T04:07:12.844Z,12.27
2018-12-18T04:09:42.044Z,15.80
2018-12-18T04:12:15.398Z,10.57
2018-12-18T04:14:44.455Z,10.30
2018-12-18T04:17:13.736Z,10.83
2018-12-18T04:19:42.800Z,14.17
2018-12-18T04:22:12.903Z,11.30
2018-12-18T04:24:42.158Z,10.20
2018-12-18T04:27:11.251Z,13.17
2018-12-18T04:29:40.367Z,10.13
2018-12-18T04:32:09.570Z,14.80
2018-12-18T04:34:43.027Z,12.27
2018-12-18T04:37:09.731Z,11.70
2018-12-18T04:39:38.869Z,9.73
2018-12-18T04:42:07.965Z,11.57
2018-12-18T04:44:37.234Z,10.20
2018-12-18T04:47:06.321Z,14.07
2018-12-18T04:49:35.583Z,12.37
2018-12-18T04:52:04.801Z,9.10
2018-12-18T04:54:33.968Z,10.00
2018-12-18T04:57:03.309Z,10.30
2018-12-18T04:59:32.459Z,11.03
2018-12-18T05:02:01.661Z,14.20
2018-12-18T05:04:30.762Z,7.80
2018-12-18T05:06:59.847Z,8.53
2018-12-18T05:09:28.992Z,10.23
2018-12-18T05:11:58.134Z,10.93
2018-12-18T05:14:27.260Z,8.93
2018-12-18T05:16:56.352Z,9.97
2018-12-18T05:19:25.424Z,11.07
2018-12-18T05:21:54.529Z,11.07
2018-12-18T05:24:23.646Z,8.70
2018-12-18T05:26:52.814Z,13.43
2018-12-18T05:29:21.883Z,11.53
2018-12-18T05:31:52.050Z,9.87
2018-12-18T05:34:21.382Z,11.10
2018-12-18T05:36:51.610Z,12.13
2018-12-18T05:39:21.805Z,11.27
2018-12-18T05:41:51.287Z,9.40
2018-12-18T05:44:20.461Z,9.00
2018-12-18T05:46:49.614Z,12.73
2018-12-18T05:49:18.950Z,12.67
2018-12-18T05:51:49.415Z,15.03
2018-12-18T05:54:18.597Z,12.17
2018-12-18T05:56:47.770Z,9.47
2018-12-18T05:59:16.917Z,12.70
2018-12-18T06:01:46.229Z,9.30
2018-12-18T06:04:15.453Z,8.93
2018-12-18T06:06:44.673Z,11.13
2018-12-18T06:09:13.859Z,9.67
2018-12-18T06:11:44.141Z,9.23
2018-12-18T06:14:13.287Z,7.13
2018-12-18T06:16:42.597Z,8.70
2018-12-18T06:19:11.698Z,10.83
2018-12-18T06:21:40.825Z,11.83
2018-12-18T06:24:09.927Z,10.73
2018-12-18T06:26:39.053Z,9.57
2018-12-18T06:29:08.259Z,10.13
2018-12-18T06:31:37.353Z,12.83
2018-12-18T06:34:06.419Z,10.93
2018-12-18T06:36:35.495Z,8.47
2018-12-18T06:39:06.953Z,10.23
2018-12-18T06:41:36.087Z,12.57
2018-12-18T06:44:05.313Z,11.10
2018-12-18T06:46:34.420Z,8.30
2018-12-18T06:49:03.536Z,8.00
2018-12-18T06:51:32.706Z,8.97
2018-12-18T06:54:01.777Z,7.47
2018-12-18T06:56:30.936Z,9.60
2018-12-18T06:59:01.215Z,10.17
2018-12-18T07:01:30.902Z,12.07
2018-12-18T07:04:00.062Z,7.27
2018-12-18T07:06:29.126Z,12.10
2018-12-18T07:09:00.328Z,10.33
2018-12-18T07:11:29.497Z,11.73
2018-12-18T07:13:59.624Z,10.70
2018-12-18T07:16:28.816Z,10.77
2018-12-18T07:18:58.278Z,10.73
2018-12-18T07:21:27.566Z,7.97
2018-12-18T07:23:57.826Z,9.13
2018-12-18T07:26:26.987Z,9.37
2018-12-18T07:28:56.071Z,10.40
2018-12-18T07:31:25.255Z,10.80
2018-12-18T07:33:54.464Z,11.47
2018-12-18T07:36:23.600Z,6.80
2018-12-18T07:38:52.768Z,9.40
2018-12-18T07:41:21.914Z,11.90
2018-12-18T07:43:51.003Z,12.00
2018-12-18T07:46:20.117Z,8.43
2018-12-18T07:48:49.321Z,7.53
2018-12-18T07:51:18.787Z,7.27
2018-12-18T07:53:47.906Z,12.17
2018-12-18T07:56:17.024Z,8.60
2018-12-18T07:58:46.077Z,8.47
2018-12-18T08:01:15.258Z,12.43
2018-12-18T08:03:45.402Z,10.60
2018-12-18T08:06:14.714Z,9.33
2018-12-18T08:08:44.957Z,11.27
2018-12-18T08:11:14.158Z,6.77
2018-12-18T08:13:43.361Z,8.77
2018-12-18T08:16:12.501Z,6.30
2018-12-18T08:18:41.805Z,8.90
2018-12-18T08:21:11.665Z,9.03
2018-12-18T08:23:41.725Z,6.70
2018-12-18T08:26:10.981Z,8.23
2018-12-18T08:28:40.167Z,8.23
2018-12-18T08:31:09.347Z,7.23
2018-12-18T08:33:38.564Z,9.17
2018-12-18T08:36:07.654Z,8.63
2018-12-18T08:38:36.778Z,7.00
2018-12-18T08:41:05.915Z,7.83
2018-12-18T08:43:36.086Z,8.93
2018-12-18T08:46:10.178Z,6.83
2018-12-18T08:48:36.544Z,6.73
2018-12-18T08:51:05.671Z,7.13
2018-12-18T08:53:34.809Z,11.70
2018-12-18T08:56:04.052Z,8.47
2018-12-18T08:58:33.235Z,5.57
2018-12-18T09:01:02.385Z,10.67
2018-12-18T09:03:32.628Z,7.57
2018-12-18T09:06:01.763Z,10.10
2018-12-18T09:08:30.931Z,5.73
2018-12-18T09:11:00.095Z,7.33
2018-12-18T09:13:29.309Z,12.47
2018-12-18T09:15:58.833Z,7.33
2018-12-18T09:18:28.019Z,7.70
2018-12-18T09:20:57.191Z,9.13
2018-12-18T09:23:26.389Z,4.83
2018-12-18T09:25:55.465Z,10.23
2018-12-18T09:28:24.673Z,8.20
2018-12-18T09:30:53.760Z,7.63
2018-12-18T09:33:22.912Z,7.07
2018-12-18T09:35:52.044Z,6.87
2018-12-18T09:38:26.664Z,9.50
2018-12-18T09:41:01.238Z,6.87
2018-12-18T09:43:35.683Z,9.13
2018-12-18T09:46:04.826Z,9.17
2018-12-18T09:48:34.127Z,5.73
2018-12-18T09:51:03.289Z,6.53
2018-12-18T09:53:33.625Z,7.57
2018-12-18T09:56:02.914Z,6.97
2018-12-18T09:58:32.309Z,7.17
2018-12-18T10:01:01.510Z,8.23
2018-12-18T10:03:33.627Z,8.43
2018-12-18T10:06:02.913Z,5.70
2018-12-18T10:08:32.051Z,5.80
2018-12-18T10:11:01.316Z,10.73
2018-12-18T10:13:30.407Z,5.13
2018-12-18T10:16:00.726Z,9.50
2018-12-18T10:18:29.822Z,5.30
2018-12-18T10:20:59.568Z,9.53
2018-12-18T10:23:28.760Z,7.40
2018-12-18T10:25:58.976Z,5.50
2018-12-18T10:28:28.215Z,6.10
2018-12-18T10:30:57.433Z,7.67
2018-12-18T10:33:26.680Z,5.13
2018-12-18T10:35:55.782Z,4.77
2018-12-18T10:38:25.023Z,6.30
2018-12-18T10:40:54.330Z,4.40
2018-12-18T10:43:23.543Z,5.63
2018-12-18T10:45:52.651Z,5.40
2018-12-18T10:48:23.276Z,6.67
2018-12-18T10:50:52.412Z,4.43
2018-12-18T10:53:21.604Z,8.40
2018-12-18T10:55:50.748Z,6.83
2018-12-18T10:58:23.981Z,6.60
2018-12-18T11:00:56.356Z,5.63
2018-12-18T11:03:25.475Z,4.27
2018-12-18T11:05:54.705Z,5.10
2018-12-18T11:08:24.750Z,7.43
2018-12-18T11:10:55.037Z,5.70
2018-12-18T11:13:24.201Z,6.80
2018-12-18T11:15:53.348Z,6.43
2018-12-18T11:18:22.654Z,7.00
2018-12-18T11:20:51.831Z,5.37
2018-12-18T11:23:20.939Z,4.57
2018-12-18T11:25:50.101Z,5.13
2018-12-18T11:28:19.293Z,8.50
2018-12-18T11:30:48.719Z,7.80
2018-12-18T11:33:17.845Z,5.50
2018-12-18T11:35:47.059Z,4.83
2018-12-18T11:38:16.387Z,8.87
2018-12-18T11:40:45.570Z,6.73
2018-12-18T11:43:15.874Z,4.73
2018-12-18T11:45:45.092Z,5.13
2018-12-18T11:48:15.280Z,7.37
2018-12-18T11:50:44.363Z,5.53
2018-12-18T11:53:13.570Z,5.83
2018-12-18T11:55:42.711Z,7.17
2018-12-18T11:58:11.851Z,5.47
2018-12-18T12:00:41.077Z,4.23
2018-12-18T12:03:10.173Z,8.33
2018-12-18T12:05:39.327Z,4.23
2018-12-18T12:08:08.669Z,7.00
2018-12-18T12:10:37.961Z,3.57
2018-12-18T12:13:07.161Z,6.30
2018-12-18T12:15:36.315Z,5.40
2018-12-18T12:18:05.618Z,5.53
2018-12-18T12:20:35.221Z,3.97
2018-12-18T12:23:04.427Z,6.33
2018-12-18T12:25:33.597Z,6.77
2018-12-18T12:28:06.249Z,8.77
2018-12-18T12:30:35.767Z,7.17
2018-12-18T12:33:05.139Z,4.67
2018-12-18T12:35:34.351Z,6.90
2018-12-18T12:38:03.522Z,5.17
2018-12-18T12:40:33.179Z,6.90
2018-12-18T12:43:02.333Z,6.57
2018-12-18T12:45:31.998Z,5.10
2018-12-18T12:48:03.162Z,7.83
2018-12-18T12:50:32.350Z,3.17
2018-12-18T12:53:01.701Z,4.50
2018-12-18T12:55:31.439Z,5.30
2018-12-18T12:58:00.634Z,4.93
2018-12-18T13:00:29.860Z,4.80
2018-12-18T13:02:59.395Z,4.33
2018-12-18T13:05:29.555Z,7.43
2018-12-18T13:07:58.778Z,4.27
2018-12-18T13:10:28.126Z,3.33
2018-12-18T13:12:57.264Z,5.53
2018-12-18T13:15:26.366Z,6.43
2018-12-18T13:17:55.446Z,4.10
2018-12-18T13:20:24.825Z,4.57
2018-12-18T13:22:54.020Z,4.20
2018-12-18T13:25:23.107Z,3.43
2018-12-18T13:27:52.378Z,4.67
2018-12-18T13:30:21.597Z,4.50
2018-12-18T13:32:50.958Z,7.33
2018-12-18T13:35:20.122Z,4.87
2018-12-18T13:37:49.405Z,5.23
2018-12-18T13:40:18.677Z,6.10
2018-12-18T13:42:47.862Z,4.77
2018-12-18T13:45:17.006Z,7.60
2018-12-18T13:47:46.148Z,3.67
2018-12-18T13:50:15.317Z,4.50
2018-12-18T13:52:44.454Z,5.43
2018-12-18T13:55:13.938Z,4.80
2018-12-18T13:57:44.223Z,5.23
2018-12-18T14:00:13.539Z,6.07
2018-12-18T14:02:42.662Z,5.47
2018-12-18T14:05:11.874Z,4.77
2018-12-18T14:07:42.086Z,7.20
2018-12-18T14:10:11.156Z,3.83
2018-12-18T14:12:40.247Z,4.90
2018-12-18T14:15:09.791Z,4.20
2018-12-18T14:17:38.949Z,6.83
2018-12-18T14:20:08.865Z,8.23
2018-12-18T14:22:38.389Z,5.27
2018-12-18T14:25:07.665Z,6.10
2018-12-18T14:27:36.752Z,9.10
2018-12-18T14:30:06.325Z,4.67
2018-12-18T14:32:35.543Z,3.30
2018-12-18T14:35:06.538Z,6.07
2018-12-18T14:37:35.987Z,4.70
2018-12-18T14:40:05.595Z,5.30
2018-12-18T14:42:34.853Z,4.43
2018-12-18T14:45:04.589Z,4.53
2018-12-18T14:47:33.695Z,7.27
2018-12-18T14:50:02.834Z,4.57
2018-12-18T14:52:31.958Z,4.33
2018-12-18T14:55:01.094Z,7.50
2018-12-18T14:57:30.458Z,5.50
2018-12-18T14:59:59.534Z,7.43
2018-12-18T15:02:28.718Z,7.73
2018-12-18T15:04:57.888Z,5.07
2018-12-18T15:07:28.288Z,3.70
2018-12-18T15:09:57.533Z,4.40
2018-12-18T15:12:26.725Z,5.57
2018-12-18T15:14:56.362Z,7.53
2018-12-18T15:17:25.645Z,5.63
2018-12-18T15:19:54.843Z,6.63
2018-12-18T15:22:24.271Z,3.83
2018-12-18T15:24:53.344Z,3.20
2018-12-18T15:27:23.591Z,6.23
2018-12-18T15:29:52.757Z,6.13
2018-12-18T15:32:22.132Z,4.87
2018-12-18T15:34:51.279Z,5.07
2018-12-18T15:37:20.377Z,3.10
2018-12-18T15:39:49.683Z,5.17
2018-12-18T15:42:18.857Z,5.37
2018-12-18T15:44:48.046Z,5.23
2018-12-18T15:47:17.214Z,3.53
2018-12-18T15:49:46.423Z,4.47
2018-12-18T15:52:15.591Z,5.47
2018-12-18T15:54:45.683Z,3.53
2018-12-18T15:57:16.795Z,4.33
2018-12-18T15:59:45.976Z,4.50
2018-12-18T16:02:15.173Z,4.47
2018-12-18T16:04:44.455Z,5.00
2018-12-18T16:07:16.302Z,3.63
2018-12-18T16:09:45.546Z,3.10
2018-12-18T16:12:14.750Z,5.03
2018-12-18T16:14:43.887Z,3.53
2018-12-18T16:17:13.095Z,3.77
2018-12-18T16:19:43.682Z,5.87
2018-12-18T16:22:12.962Z,4.83
2018-12-18T16:24:42.211Z,4.33
2018-12-18T16:27:11.308Z,6.70
2018-12-18T16:29:40.663Z,5.67
2018-12-18T16:32:09.753Z,7.90
2018-12-18T16:34:38.953Z,5.70
2018-12-18T16:37:08.268Z,7.87
2018-12-18T16:39:37.489Z,5.90
2018-12-18T16:42:06.636Z,5.73
2018-12-18T16:44:35.756Z,3.97
2018-12-18T16:47:04.854Z,5.03
2018-12-18T16:49:34.032Z,8.43
2018-12-18T16:52:03.246Z,3.67
2018-12-18T16:54:32.931Z,7.07
2018-12-18T16:57:03.157Z,5.00
2018-12-18T16:59:32.347Z,5.80
2018-12-18T17:02:01.457Z,7.13
2018-12-18T17:04:30.809Z,6.27
2018-12-18T17:06:59.948Z,4.70
2018-12-18T17:09:29.427Z,4.40
2018-12-18T17:11:58.539Z,6.20
2018-12-18T17:14:27.839Z,5.13
2018-12-18T17:16:56.963Z,4.40
2018-12-18T17:19:26.196Z,4.80
2018-12-18T17:21:55.793Z,3.73
2018-12-18T17:24:25.013Z,5.73
2018-12-18T17:26:54.132Z,5.00
2018-12-18T17:29:23.477Z,5.10
2018-12-18T17:31:52.692Z,6.00
2018-12-18T17:34:21.909Z,4.63
2018-12-18T17:36:51.128Z,3.97
2018-12-18T17:39:20.344Z,4.20
2018-12-18T17:41:49.562Z,5.50
2018-12-18T17:44:18.652Z,5.03
2018-12-18T17:46:47.865Z,5.70
2018-12-18T17:49:17.121Z,6.40
2018-12-18T17:51:47.255Z,5.60
2018-12-18T17:54:16.499Z,3.67
2018-12-18T17:56:45.677Z,6.27
2018-12-18T17:59:15.362Z,6.40
2018-12-18T18:01:44.534Z,4.30
2018-12-18T18:04:13.758Z,4.73
2018-12-18T18:06:43.162Z,4.30
2018-12-18T18:09:12.318Z,4.83
2018-12-18T18:11:41.464Z,5.53
2018-12-18T18:14:10.642Z,7.17
2018-12-18T18:16:39.942Z,5.07
2018-12-18T18:19:09.139Z,5.60
2018-12-18T18:21:38.268Z,5.33
2018-12-18T18:24:07.456Z,6.83
2018-12-18T18:26:36.562Z,6.50
2018-12-18T18:29:05.658Z,6.50
2018-12-18T18:31:35.774Z,7.80
2018-12-18T18:34:04.973Z,6.20
2018-12-18T18:36:35.704Z,7.77
2018-12-18T18:39:07.965Z,6.97
2018-12-18T18:41:37.154Z,5.20
2018-12-18T18:44:06.372Z,4.20
2018-12-18T18:46:35.565Z,6.97
2018-12-18T18:49:04.790Z,6.50
2018-12-18T18:51:33.980Z,8.30
2018-12-18T18:54:03.310Z,5.20
2018-12-18T18:56:32.601Z,5.37
2018-12-18T18:59:01.761Z,5.73
2018-12-18T19:01:30.972Z,5.03
2018-12-18T19:04:00.146Z,5.13
2018-12-18T19:06:29.651Z,5.40
2018-12-18T19:08:58.929Z,7.37
2018-12-18T19:11:28.078Z,5.73
2018-12-18T19:13:57.204Z,5.43
2018-12-18T19:16:26.395Z,6.33
2018-12-18T19:18:55.511Z,9.17
2018-12-18T19:21:24.721Z,6.43
2018-12-18T19:23:53.818Z,5.40
2018-12-18T19:26:22.944Z,6.23
2018-12-18T19:28:52.080Z,8.20
2018-12-18T19:31:21.276Z,5.90
2018-12-18T19:33:50.624Z,6.17
2018-12-18T19:36:19.967Z,5.93
2018-12-18T19:38:49.182Z,5.17
2018-12-18T19:41:18.861Z,5.83
2018-12-18T19:43:48.678Z,6.17
2018-12-18T19:46:17.974Z,5.20
2018-12-18T19:48:47.208Z,6.00
2018-12-18T19:51:16.662Z,8.40
2018-12-18T19:53:45.956Z,4.90
2018-12-18T19:56:15.091Z,6.13
2018-12-18T19:58:44.314Z,5.43
2018-12-18T20:01:14.344Z,6.00
2018-12-18T20:03:43.979Z,7.10
2018-12-18T20:06:13.135Z,5.90
2018-12-18T20:08:42.245Z,5.03
2018-12-18T20:11:11.476Z,3.63
2018-12-18T20:13:40.838Z,4.10
2018-12-18T20:16:10.052Z,4.53
2018-12-18T20:18:39.385Z,4.40
2018-12-18T20:21:08.573Z,4.57
2018-12-18T20:23:37.815Z,3.67
2018-12-18T20:26:09.193Z,5.87
2018-12-18T20:28:39.014Z,3.30
2018-12-18T20:31:08.230Z,3.30
2018-12-18T20:33:37.293Z,3.20
2018-12-18T20:36:06.640Z,4.57
2018-12-18T20:38:35.814Z,4.57
2018-12-18T20:41:05.199Z,4.10
2018-12-18T20:43:34.400Z,3.57
2018-12-18T20:46:04.628Z,2.80
2018-12-18T20:48:33.872Z,4.97
2018-12-18T20:51:03.071Z,3.40
2018-12-18T20:53:32.253Z,3.37
2018-12-18T20:56:01.541Z,3.90
2018-12-18T20:58:30.952Z,4.73
2018-12-18T21:01:00.093Z,5.30
2018-12-18T21:03:29.190Z,3.50
2018-12-18T21:05:58.411Z,3.67
2018-12-18T21:08:27.499Z,3.10
2018-12-18T21:10:57.861Z,3.73
2018-12-18T21:13:31.612Z,4.43
2018-12-18T21:16:00.711Z,3.17
2018-12-18T21:18:30.015Z,3.37
2018-12-18T21:20:59.431Z,3.17
2018-12-18T21:23:29.660Z,4.00
2018-12-18T21:25:59.384Z,4.77
2018-12-18T21:28:29.746Z,4.90
2018-12-18T21:30:58.883Z,3.33
2018-12-18T21:33:28.176Z,3.83
2018-12-18T21:35:57.506Z,4.37
2018-12-18T21:38:30.178Z,4.73
2018-12-18T21:40:58.122Z,4.17
2018-12-18T21:43:27.283Z,3.33
2018-12-18T21:45:56.516Z,3.97
2018-12-18T21:48:26.467Z,4.13
2018-12-18T21:50:55.564Z,3.90
2018-12-18T21:53:24.754Z,3.30
2018-12-18T21:55:54.126Z,3.77
2018-12-18T21:58:23.354Z,4.93
2018-12-18T22:00:52.512Z,4.43
2018-12-18T22:03:22.754Z,3.73
2018-12-18T22:05:51.986Z,3.37
2018-12-18T22:08:21.216Z,3.43
2018-12-18T22:10:50.334Z,4.27
2018-12-18T22:13:19.452Z,3.63
2018-12-18T22:15:48.618Z,4.57
2018-12-18T22:18:17.894Z,3.53
2018-12-18T22:20:47.128Z,3.40
2018-12-18T22:23:16.426Z,3.73
2018-12-18T22:25:45.665Z,3.20
2018-12-18T22:28:14.848Z,4.00
2018-12-18T22:30:43.922Z,3.27
2018-12-18T22:33:13.496Z,5.10
2018-12-18T22:35:42.686Z,4.30
2018-12-18T22:38:11.819Z,3.97
2018-12-18T22:40:40.986Z,4.53
2018-12-18T22:43:10.118Z,3.33
2018-12-18T22:45:39.404Z,3.00
2018-12-18T22:48:08.595Z,2.83
2018-12-18T22:50:37.896Z,3.70
2018-12-18T22:53:07.586Z,2.83
2018-12-18T22:55:36.905Z,3.33
2018-12-18T22:58:06.084Z,3.63
2018-12-18T23:00:40.640Z,3.20
2018-12-18T23:03:09.898Z,4.43
2018-12-18T23:05:40.180Z,3.53
2018-12-18T23:08:10.089Z,3.37
2018-12-18T23:10:40.259Z,3.10
2018-12-18T23:13:11.422Z,3.13
2018-12-18T23:15:40.528Z,4.37
2018-12-18T23:18:09.619Z,3.43
2018-12-18T23:20:38.857Z,2.80
2018-12-18T23:23:07.936Z,4.00
2018-12-18T23:25:37.083Z,3.17
2018-12-18T23:28:06.639Z,6.17
2018-12-18T23:30:35.702Z,2.97
2018-12-18T23:33:04.853Z,4.03
2018-12-18T23:35:35.802Z,5.03
2018-12-18T23:38:05.000Z,4.47
2018-12-18T23:40:35.158Z,3.30
2018-12-18T23:43:04.264Z,3.13
2018-12-18T23:45:35.440Z,3.33
2018-12-18T23:48:04.605Z,3.77
2018-12-18T23:50:33.857Z,3.00
2018-12-18T23:53:03.093Z,3.83
2018-12-18T23:55:32.722Z,4.83
2018-12-18T23:58:01.928Z,3.50
